createdAt,value
2022-10-19T07:34:57.087Z,1003.41
2022-10-19T07:35:56.776Z,1003.41
2022-10-19T07:36:56.773Z,1003.45
2022-10-19T07:37:56.750Z,1003.44
2022-10-19T07:38:56.768Z,1003.40
2022-10-19T07:39:56.778Z,1003.42
2022-10-19T07:40:56.926Z,1003.45
2022-10-19T07:41:56.942Z,1003.44
2022-10-19T07:42:56.731Z,1003.44
2022-10-19T07:43:56.741Z,1003.47
2022-10-19T07:44:56.702Z,1003.48
2022-10-19T07:45:56.888Z,1003.40
2022-10-19T07:46:56.925Z,1003.42
2022-10-19T07:47:56.681Z,1003.42
2022-10-19T07:48:56.697Z,1003.44
2022-10-19T07:49:56.704Z,1003.43
2022-10-19T07:50:56.692Z,1003.42
2022-10-19T07:51:56.652Z,1003.47
2022-10-19T07:52:56.631Z,1003.44
2022-10-19T07:53:56.848Z,1003.43
2022-10-19T07:54:56.664Z,1003.45
2022-10-19T07:55:56.629Z,1003.45
2022-10-19T07:56:56.625Z,1003.47
2022-10-19T07:57:56.630Z,1003.42
2022-10-19T07:58:56.658Z,1003.45
2022-10-19T07:59:56.594Z,1003.47
2022-10-19T08:00:56.574Z,1003.47
2022-10-19T08:01:56.591Z,1003.46
2022-10-19T08:03:19.349Z,1003.46
2022-10-19T08:04:43.292Z,1003.48
2022-10-19T08:05:01.318Z,1003.48
2022-10-19T08:05:56.572Z,1003.53
2022-10-19T08:06:56.844Z,1003.50
2022-10-19T08:07:56.771Z,1003.47
2022-10-19T08:08:56.928Z,1003.52
2022-10-19T08:09:56.787Z,1003.52
2022-10-19T08:10:56.547Z,1003.52
2022-10-19T08:11:56.845Z,1003.50
2022-10-19T08:12:56.747Z,1003.53
2022-10-19T08:13:56.454Z,1003.51
2022-10-19T08:14:56.831Z,1003.52
2022-10-19T08:15:56.507Z,1003.50
2022-10-19T08:16:56.571Z,1003.54
2022-10-19T08:17:56.647Z,1003.51
2022-10-19T08:18:56.812Z,1003.54
2022-10-19T08:19:56.720Z,1003.52
2022-10-19T08:20:56.621Z,1003.53
2022-10-19T08:21:56.395Z,1003.52
2022-10-19T08:22:58.965Z,1003.49
2022-10-19T08:23:56.434Z,1003.50
2022-10-19T08:24:56.740Z,1003.54
2022-10-19T08:25:56.433Z,1003.51
2022-10-19T08:26:56.687Z,1003.51
2022-10-19T08:27:56.458Z,1003.53
2022-10-19T08:28:56.378Z,1003.59
2022-10-19T08:29:56.430Z,1003.55
2022-10-19T08:30:56.378Z,1003.58
2022-10-19T08:31:56.404Z,1003.57
2022-10-19T08:32:56.367Z,1003.59
2022-10-19T08:33:56.512Z,1003.63
2022-10-19T08:34:56.595Z,1003.59
2022-10-19T08:35:56.436Z,1003.59
2022-10-19T08:36:56.569Z,1003.61
2022-10-19T08:37:58.545Z,1003.64
2022-10-19T08:38:56.399Z,1003.62
2022-10-19T08:39:56.496Z,1003.56
2022-10-19T08:40:56.265Z,1003.52
2022-10-19T08:41:56.275Z,1003.54
2022-10-19T08:42:56.273Z,1003.50
2022-10-19T08:43:56.250Z,1003.51
2022-10-19T08:44:56.251Z,1003.53
2022-10-19T08:45:56.265Z,1003.51
2022-10-19T08:46:56.452Z,1003.48
2022-10-19T08:47:56.309Z,1003.49
2022-10-19T08:48:56.237Z,1003.50
2022-10-19T08:49:56.253Z,1003.48
2022-10-19T08:50:56.466Z,1003.51
2022-10-19T08:51:56.245Z,1003.48
2022-10-19T08:52:56.491Z,1003.51
2022-10-19T08:53:56.219Z,1003.49
2022-10-19T08:54:56.277Z,1003.52
2022-10-19T08:55:57.843Z,1003.50
2022-10-19T08:56:56.197Z,1003.46
2022-10-19T08:57:56.203Z,1003.49
2022-10-19T08:58:56.205Z,1003.54
2022-10-19T08:59:56.163Z,1003.58
2022-10-19T09:00:56.202Z,1003.55
2022-10-19T09:01:56.224Z,1003.53
2022-10-19T09:02:56.225Z,1003.50
2022-10-19T09:03:56.750Z,1003.46
2022-10-19T09:04:56.257Z,1003.51
2022-10-19T09:05:56.264Z,1003.46
2022-10-19T09:06:56.383Z,1003.48
2022-10-19T09:07:56.344Z,1003.50
2022-10-19T09:08:56.424Z,1003.48
2022-10-19T09:09:56.160Z,1003.45
2022-10-19T09:10:56.133Z,1003.48
2022-10-19T09:11:56.090Z,1003.54
2022-10-19T09:12:58.434Z,1003.54
2022-10-19T09:14:06.120Z,1003.56
2022-10-19T09:14:56.133Z,1003.52
2022-10-19T09:15:56.079Z,1003.50
2022-10-19T09:16:56.077Z,1003.53
2022-10-19T09:17:56.116Z,1003.50
2022-10-19T09:18:56.563Z,1003.51
2022-10-19T09:19:56.081Z,1003.44
2022-10-19T09:20:56.068Z,1003.42
2022-10-19T09:21:56.109Z,1003.44
2022-10-19T09:22:56.037Z,1003.42
2022-10-19T09:23:56.048Z,1003.41
2022-10-19T09:24:56.033Z,1003.43
2022-10-19T09:25:55.997Z,1003.44
2022-10-19T09:26:56.071Z,1003.43
2022-10-19T09:27:56.060Z,1003.43
2022-10-19T09:28:55.996Z,1003.42
2022-10-19T09:29:56.044Z,1003.40
2022-10-19T09:30:55.966Z,1003.40
2022-10-19T09:31:56.031Z,1003.37
2022-10-19T09:32:55.961Z,1003.40
2022-10-19T09:33:55.993Z,1003.36
2022-10-19T09:34:55.985Z,1003.39
2022-10-19T09:35:55.955Z,1003.37
2022-10-19T09:36:56.162Z,1003.39
2022-10-19T09:37:55.933Z,1003.37
2022-10-19T09:38:55.937Z,1003.36
2022-10-19T09:39:56.290Z,1003.38
2022-10-19T09:40:55.913Z,1003.40
2022-10-19T09:41:55.891Z,1003.39
2022-10-19T09:42:56.167Z,1003.43
2022-10-19T09:43:55.887Z,1003.43
2022-10-19T09:44:56.501Z,1003.43
2022-10-19T09:45:55.909Z,1003.43
2022-10-19T09:46:55.876Z,1003.44
2022-10-19T09:47:58.267Z,1003.46
2022-10-19T09:48:56.265Z,1003.44
2022-10-19T09:49:55.862Z,1003.44
2022-10-19T09:50:55.834Z,1003.44
2022-10-19T09:51:55.830Z,1003.46
2022-10-19T09:52:55.847Z,1003.44
2022-10-19T09:53:55.817Z,1003.42
2022-10-19T09:54:55.813Z,1003.47
2022-10-19T09:55:55.867Z,1003.44
2022-10-19T09:56:56.000Z,1003.47
2022-10-19T09:57:55.779Z,1003.47
2022-10-19T09:58:55.896Z,1003.45
2022-10-19T09:59:55.828Z,1003.47
2022-10-19T10:00:55.991Z,1003.47
2022-10-19T10:01:55.850Z,1003.47
2022-10-19T10:02:55.745Z,1003.53
2022-10-19T10:03:56.065Z,1003.50
2022-10-19T10:04:55.723Z,1003.47
2022-10-19T10:05:55.777Z,1003.47
2022-10-19T10:06:55.744Z,1003.47
2022-10-19T10:07:55.905Z,1003.45
2022-10-19T10:08:55.730Z,1003.43
2022-10-19T10:09:55.699Z,1003.42
2022-10-19T10:10:55.696Z,1003.41
2022-10-19T10:12:55.638Z,1003.39
2022-10-19T10:13:55.650Z,1003.37
2022-10-19T10:14:55.779Z,1003.39
2022-10-19T10:15:55.633Z,1003.41
2022-10-19T10:16:55.605Z,1003.42
2022-10-19T10:17:55.618Z,1003.39
2022-10-19T10:18:55.593Z,1003.41
2022-10-19T10:19:55.609Z,1003.43
2022-10-19T10:20:55.593Z,1003.40
2022-10-19T10:21:55.613Z,1003.42
2022-10-19T10:22:55.559Z,1003.45
2022-10-19T10:23:55.796Z,1003.41
2022-10-19T10:24:55.963Z,1003.42
2022-10-19T10:25:55.778Z,1003.41
2022-10-19T10:26:55.756Z,1003.42
2022-10-19T10:27:55.555Z,1003.42
2022-10-19T10:28:57.922Z,1003.43
2022-10-19T10:30:55.540Z,1003.42
2022-10-19T10:31:55.508Z,1003.45
2022-10-19T10:32:56.599Z,1003.46
2022-10-19T10:33:55.622Z,1003.50
2022-10-19T10:34:58.425Z,1003.51
2022-10-19T10:35:55.493Z,1003.51
2022-10-19T10:36:55.475Z,1003.49
2022-10-19T10:37:55.495Z,1003.50
2022-10-19T10:38:55.526Z,1003.46
2022-10-19T10:39:57.789Z,1003.44
2022-10-19T10:40:55.464Z,1003.42
2022-10-19T10:41:55.441Z,1003.44
2022-10-19T10:42:55.416Z,1003.44
2022-10-19T10:43:56.749Z,1003.44
2022-10-19T10:44:55.415Z,1003.42
2022-10-19T10:45:55.408Z,1003.41
2022-10-19T10:46:55.606Z,1003.42
2022-10-19T10:47:55.436Z,1003.40
2022-10-19T10:48:55.426Z,1003.43
2022-10-19T10:49:55.368Z,1003.40
2022-10-19T10:50:55.390Z,1003.41
2022-10-19T10:51:55.401Z,1003.40
2022-10-19T10:52:55.406Z,1003.44
2022-10-19T10:53:55.368Z,1003.40
2022-10-19T10:54:55.315Z,1003.40
2022-10-19T10:55:55.356Z,1003.36
2022-10-19T10:56:55.502Z,1003.37
2022-10-19T10:57:55.307Z,1003.38
2022-10-19T10:58:55.280Z,1003.37
2022-10-19T10:59:55.308Z,1003.39
2022-10-19T11:00:55.312Z,1003.37
2022-10-19T11:01:55.365Z,1003.39
2022-10-19T11:02:55.290Z,1003.34
2022-10-19T11:03:55.287Z,1003.33
2022-10-19T11:04:55.255Z,1003.37
2022-10-19T11:05:55.256Z,1003.31
2022-10-19T11:06:55.270Z,1003.34
2022-10-19T11:07:55.246Z,1003.28
2022-10-19T11:08:55.337Z,1003.28
2022-10-19T11:09:55.195Z,1003.30
2022-10-19T11:10:55.407Z,1003.27
2022-10-19T11:11:55.177Z,1003.32
2022-10-19T11:12:55.231Z,1003.27
2022-10-19T11:13:55.172Z,1003.24
2022-10-19T11:14:55.167Z,1003.22
2022-10-19T11:15:55.176Z,1003.26
2022-10-19T11:16:55.178Z,1003.24
2022-10-19T11:17:55.125Z,1003.25
2022-10-19T11:18:55.195Z,1003.25
2022-10-19T11:19:55.234Z,1003.23
2022-10-19T11:20:55.139Z,1003.19
2022-10-19T11:21:55.351Z,1003.20
2022-10-19T11:22:55.127Z,1003.20
2022-10-19T11:23:55.074Z,1003.15
2022-10-19T11:24:55.103Z,1003.13
2022-10-19T11:25:55.074Z,1003.07
2022-10-19T11:26:55.252Z,1003.05
2022-10-19T11:27:55.047Z,1003.05
2022-10-19T11:28:55.074Z,1003.04
2022-10-19T11:29:55.068Z,1003.03
2022-10-19T11:30:55.031Z,1003.01
2022-10-19T11:31:55.031Z,1003.03
2022-10-19T11:32:55.028Z,1003.03
2022-10-19T11:33:54.989Z,1003.01
2022-10-19T11:34:55.006Z,1003.01
2022-10-19T11:35:55.094Z,1002.96
2022-10-19T11:36:54.986Z,1002.97
2022-10-19T11:38:18.174Z,1002.96
2022-10-19T11:38:54.980Z,1002.93
2022-10-19T11:39:54.977Z,1002.90
2022-10-19T11:41:54.950Z,1002.84
2022-10-19T11:42:54.956Z,1002.89
2022-10-19T11:43:54.918Z,1002.90
2022-10-19T11:44:55.115Z,1002.88
2022-10-19T11:45:54.906Z,1002.85
2022-10-19T11:46:55.128Z,1002.86
2022-10-19T11:47:54.911Z,1002.84
2022-10-19T11:48:55.118Z,1002.82
2022-10-19T11:49:54.981Z,1002.79
2022-10-19T11:50:58.974Z,1002.80
2022-10-19T11:51:54.879Z,1002.77
2022-10-19T11:52:54.886Z,1002.80
2022-10-19T11:53:54.860Z,1002.76
2022-10-19T11:54:55.057Z,1002.77
2022-10-19T11:55:54.869Z,1002.74
2022-10-19T11:57:04.749Z,1002.74
2022-10-19T11:57:54.813Z,1002.71
2022-10-19T11:58:54.834Z,1002.73
2022-10-19T12:00:00.211Z,1002.72
2022-10-19T12:00:54.786Z,1002.66
2022-10-19T12:01:54.896Z,1002.67
2022-10-19T12:02:54.973Z,1002.69
2022-10-19T12:03:54.745Z,1002.66
2022-10-19T12:04:54.759Z,1002.66
2022-10-19T12:05:54.760Z,1002.65
2022-10-19T12:06:54.891Z,1002.68
2022-10-19T12:07:54.796Z,1002.65
2022-10-19T12:08:56.224Z,1002.61
2022-10-19T12:09:54.742Z,1002.64
2022-10-19T12:10:54.718Z,1002.59
2022-10-19T12:11:54.703Z,1002.61
2022-10-19T12:12:54.710Z,1002.58
2022-10-19T12:13:54.716Z,1002.56
2022-10-19T12:14:54.720Z,1002.52
2022-10-19T12:15:54.674Z,1002.52
2022-10-19T12:16:54.699Z,1002.51
2022-10-19T12:17:54.670Z,1002.52
2022-10-19T12:18:54.655Z,1002.53
2022-10-19T12:19:54.705Z,1002.52
2022-10-19T12:20:54.656Z,1002.55
2022-10-19T12:21:54.652Z,1002.55
2022-10-19T12:23:54.658Z,1002.54
2022-10-19T12:24:54.633Z,1002.54
2022-10-19T12:25:54.611Z,1002.53
2022-10-19T12:26:54.639Z,1002.59
2022-10-19T12:27:54.614Z,1002.55
2022-10-19T12:28:54.599Z,1002.55
2022-10-19T12:29:54.570Z,1002.51
2022-10-19T12:30:54.555Z,1002.51
2022-10-19T12:31:54.579Z,1002.53
2022-10-19T12:32:54.739Z,1002.51
2022-10-19T12:33:54.552Z,1002.51
2022-10-19T12:34:54.533Z,1002.52
2022-10-19T12:35:54.548Z,1002.52
2022-10-19T12:37:27.736Z,1002.51
2022-10-19T12:37:54.493Z,1002.47
2022-10-19T12:39:00.095Z,1002.46
2022-10-19T12:39:54.565Z,1002.42
2022-10-19T12:40:54.480Z,1002.41
2022-10-19T12:41:54.449Z,1002.36
2022-10-19T12:42:54.466Z,1002.35
2022-10-19T12:43:54.465Z,1002.36
2022-10-19T12:44:57.750Z,1002.38
2022-10-19T12:45:54.446Z,1002.34
2022-10-19T12:46:56.457Z,1002.37
2022-10-19T12:47:54.427Z,1002.40
2022-10-19T12:48:54.648Z,1002.37
2022-10-19T12:49:54.427Z,1002.38
2022-10-19T12:50:54.387Z,1002.36
2022-10-19T12:51:54.395Z,1002.36
2022-10-19T12:52:54.392Z,1002.35
2022-10-19T12:53:54.380Z,1002.37
2022-10-19T12:54:54.570Z,1002.32
2022-10-19T12:55:54.407Z,1002.32
2022-10-19T12:56:54.556Z,1002.34
2022-10-19T12:57:54.772Z,1002.32
2022-10-19T12:58:54.370Z,1002.31
2022-10-19T12:59:54.520Z,1002.31
2022-10-19T13:00:54.426Z,1002.35
2022-10-19T13:01:54.372Z,1002.32
2022-10-19T13:02:54.330Z,1002.36
2022-10-19T13:03:54.291Z,1002.35
2022-10-19T13:04:54.276Z,1002.37
2022-10-19T13:05:54.275Z,1002.38
2022-10-19T13:06:54.270Z,1002.38
2022-10-19T13:07:54.289Z,1002.35
2022-10-19T13:08:54.347Z,1002.35
2022-10-19T13:09:54.256Z,1002.39
2022-10-19T13:10:54.444Z,1002.35
2022-10-19T13:11:54.496Z,1002.35
2022-10-19T13:12:54.248Z,1002.32
2022-10-19T13:13:54.229Z,1002.33
2022-10-19T13:14:54.231Z,1002.32
2022-10-19T13:15:54.205Z,1002.31
2022-10-19T13:16:54.196Z,1002.33
2022-10-19T13:17:54.424Z,1002.34
2022-10-19T13:18:54.193Z,1002.33
2022-10-19T13:19:54.173Z,1002.33
2022-10-19T13:20:54.146Z,1002.35
2022-10-19T13:21:54.176Z,1002.33
2022-10-19T13:22:54.163Z,1002.35
2022-10-19T13:23:54.319Z,1002.34
2022-10-19T13:24:54.186Z,1002.32
2022-10-19T13:25:54.134Z,1002.35
2022-10-19T13:26:54.149Z,1002.31
2022-10-19T13:27:54.111Z,1002.32
2022-10-19T13:28:54.106Z,1002.35
2022-10-19T13:29:54.100Z,1002.31
2022-10-19T13:30:58.367Z,1002.32
2022-10-19T13:31:54.070Z,1002.30
2022-10-19T13:32:54.071Z,1002.34
2022-10-19T13:33:54.040Z,1002.37
2022-10-19T13:34:54.037Z,1002.36
2022-10-19T13:35:54.053Z,1002.38
2022-10-19T13:36:54.272Z,1002.40
2022-10-19T13:37:54.035Z,1002.44
2022-10-19T13:38:54.200Z,1002.40
2022-10-19T13:39:54.192Z,1002.43
2022-10-19T13:40:54.007Z,1002.38
2022-10-19T13:41:54.401Z,1002.33
2022-10-19T13:42:53.978Z,1002.35
2022-10-19T13:43:53.987Z,1002.33
2022-10-19T13:44:53.981Z,1002.31
2022-10-19T13:45:53.964Z,1002.28
2022-10-19T13:46:54.145Z,1002.23
2022-10-19T13:47:53.931Z,1002.21
2022-10-19T13:48:53.915Z,1002.22
2022-10-19T13:49:53.957Z,1002.20
2022-10-19T13:50:53.887Z,1002.16
2022-10-19T13:51:53.934Z,1002.20
2022-10-19T13:52:53.878Z,1002.22
2022-10-19T13:53:53.867Z,1002.19
2022-10-19T13:54:53.898Z,1002.19
2022-10-19T13:55:53.879Z,1002.21
2022-10-19T13:56:53.891Z,1002.17
2022-10-19T13:57:55.312Z,1002.19
2022-10-19T13:58:53.856Z,1002.16
2022-10-19T13:59:53.845Z,1002.22
2022-10-19T14:00:53.837Z,1002.19
2022-10-19T14:01:53.838Z,1002.25
2022-10-19T14:02:53.821Z,1002.27
2022-10-19T14:03:53.827Z,1002.24
2022-10-19T14:04:53.798Z,1002.22
2022-10-19T14:05:53.804Z,1002.21
2022-10-19T14:06:53.973Z,1002.21
2022-10-19T14:07:53.772Z,1002.18
2022-10-19T14:08:53.860Z,1002.21
2022-10-19T14:09:53.768Z,1002.20
2022-10-19T14:11:01.078Z,1002.17
2022-10-19T14:11:53.736Z,1002.15
2022-10-19T14:12:53.738Z,1002.16
2022-10-19T14:13:53.726Z,1002.13
2022-10-19T14:14:53.879Z,1002.09
2022-10-19T14:15:53.695Z,1002.07
2022-10-19T14:16:56.003Z,1002.09
2022-10-19T14:17:53.680Z,1002.07
2022-10-19T14:18:53.682Z,1002.05
2022-10-19T14:19:53.669Z,1002.05
2022-10-19T14:20:53.654Z,1002.05
2022-10-19T14:21:53.677Z,1002.07
2022-10-19T14:22:53.656Z,1002.04
2022-10-19T14:23:53.627Z,1002.03
2022-10-19T14:24:53.631Z,1002.03
2022-10-19T14:25:53.643Z,1002.02
2022-10-19T14:26:53.634Z,1001.98
2022-10-19T14:27:53.599Z,1001.99
2022-10-19T14:28:53.607Z,1001.96
2022-10-19T14:29:53.616Z,1001.93
2022-10-19T14:30:53.792Z,1001.93
2022-10-19T14:31:53.572Z,1001.91
2022-10-19T14:32:55.704Z,1001.92
2022-10-19T14:33:53.536Z,1001.94
2022-10-19T14:34:53.631Z,1001.87
2022-10-19T14:35:53.744Z,1001.91
2022-10-19T14:36:53.534Z,1001.90
2022-10-19T14:37:53.511Z,1001.93
2022-10-19T14:38:53.771Z,1001.87
2022-10-19T14:39:53.499Z,1001.87
2022-10-19T14:40:53.550Z,1001.83
2022-10-19T14:41:53.680Z,1001.84
2022-10-19T14:42:53.468Z,1001.83
2022-10-19T14:43:53.459Z,1001.83
2022-10-19T14:44:53.443Z,1001.79
2022-10-19T14:45:53.440Z,1001.81
2022-10-19T14:46:53.421Z,1001.83
2022-10-19T14:47:53.443Z,1001.86
2022-10-19T14:48:53.406Z,1001.88
2022-10-19T14:49:53.403Z,1001.90
2022-10-19T14:50:53.405Z,1001.89
2022-10-19T14:51:53.406Z,1001.89
2022-10-19T14:52:53.599Z,1001.83
2022-10-19T14:53:53.376Z,1001.83
2022-10-19T14:54:53.354Z,1001.81
2022-10-19T14:55:53.342Z,1001.81
2022-10-19T14:56:53.508Z,1001.80
2022-10-19T14:57:53.331Z,1001.81
2022-10-19T14:58:53.324Z,1001.78
2022-10-19T14:59:53.314Z,1001.78
2022-10-19T15:00:53.335Z,1001.79
2022-10-19T15:01:53.389Z,1001.76
2022-10-19T15:02:53.320Z,1001.75
2022-10-19T15:03:53.544Z,1001.73
2022-10-19T15:04:53.311Z,1001.75
2022-10-19T15:05:53.275Z,1001.74
2022-10-19T15:06:53.344Z,1001.73
2022-10-19T15:07:53.275Z,1001.74
2022-10-19T15:09:53.243Z,1001.71
2022-10-19T15:10:53.304Z,1001.69
2022-10-19T15:11:53.224Z,1001.68
2022-10-19T15:12:53.186Z,1001.68
2022-10-19T15:13:53.198Z,1001.68
2022-10-19T15:14:53.216Z,1001.67
2022-10-19T15:15:53.190Z,1001.68
2022-10-19T15:16:53.266Z,1001.67
2022-10-19T15:17:53.196Z,1001.67
2022-10-19T15:18:53.429Z,1001.63
2022-10-19T15:19:53.168Z,1001.64
2022-10-19T15:21:11.319Z,1001.62
2022-10-19T15:21:53.130Z,1001.63
2022-10-19T15:22:53.135Z,1001.64
2022-10-19T15:23:53.128Z,1001.64
2022-10-19T15:24:53.105Z,1001.64
2022-10-19T15:25:53.095Z,1001.62
2022-10-19T15:27:06.635Z,1001.59
2022-10-19T15:27:53.104Z,1001.64
2022-10-19T15:28:53.106Z,1001.60
2022-10-19T15:29:53.298Z,1001.63
2022-10-19T15:30:53.045Z,1001.62
2022-10-19T15:31:53.024Z,1001.69
2022-10-19T15:32:53.050Z,1001.70
2022-10-19T15:33:53.054Z,1001.67
2022-10-19T15:34:53.027Z,1001.64
2022-10-19T15:35:53.097Z,1001.66
2022-10-19T15:36:52.985Z,1001.63
2022-10-19T15:37:53.216Z,1001.63
2022-10-19T15:38:54.252Z,1001.67
2022-10-19T15:39:52.951Z,1001.68
2022-10-19T15:40:52.941Z,1001.70
2022-10-19T15:41:52.993Z,1001.69
2022-10-19T15:42:52.975Z,1001.69
2022-10-19T15:43:52.961Z,1001.65
2022-10-19T15:44:52.946Z,1001.68
2022-10-19T15:45:52.960Z,1001.70
2022-10-19T15:46:52.902Z,1001.66
2022-10-19T15:47:52.903Z,1001.65
2022-10-19T15:48:55.280Z,1001.68
2022-10-19T15:49:52.885Z,1001.67
2022-10-19T15:50:52.889Z,1001.65
2022-10-19T15:51:53.041Z,1001.66
2022-10-19T15:52:52.845Z,1001.68
2022-10-19T15:53:52.827Z,1001.67
2022-10-19T15:54:52.853Z,1001.68
2022-10-19T15:55:52.841Z,1001.64
2022-10-19T15:56:52.821Z,1001.66
2022-10-19T15:57:52.801Z,1001.66
2022-10-19T15:58:52.811Z,1001.62
2022-10-19T15:59:52.784Z,1001.65
2022-10-19T16:00:52.768Z,1001.66
2022-10-19T16:01:56.132Z,1001.67
2022-10-19T16:02:52.755Z,1001.65
2022-10-19T16:03:52.741Z,1001.66
2022-10-19T16:04:52.818Z,1001.65
2022-10-19T16:05:52.723Z,1001.66
2022-10-19T16:06:52.725Z,1001.67
2022-10-19T16:07:52.749Z,1001.65
2022-10-19T16:08:52.738Z,1001.67
2022-10-19T16:09:52.700Z,1001.63
2022-10-19T16:10:52.702Z,1001.63
2022-10-19T16:11:52.722Z,1001.63
2022-10-19T16:12:52.670Z,1001.63
2022-10-19T16:13:52.654Z,1001.61
2022-10-19T16:14:52.633Z,1001.64
2022-10-19T16:16:01.395Z,1001.65
2022-10-19T16:16:52.628Z,1001.62
2022-10-19T16:17:52.689Z,1001.65
2022-10-19T16:18:52.811Z,1001.63
2022-10-19T16:19:52.591Z,1001.65
2022-10-19T16:20:52.603Z,1001.66
2022-10-19T16:21:52.580Z,1001.66
2022-10-19T16:22:52.762Z,1001.71
2022-10-19T16:23:52.607Z,1001.68
2022-10-19T16:24:52.547Z,1001.68
2022-10-19T16:25:52.749Z,1001.68
2022-10-19T16:26:52.743Z,1001.67
2022-10-19T16:27:52.521Z,1001.64
2022-10-19T16:28:52.511Z,1001.64
2022-10-19T16:29:52.496Z,1001.61
2022-10-19T16:30:52.490Z,1001.62
2022-10-19T16:31:52.525Z,1001.63
2022-10-19T16:32:52.493Z,1001.68
2022-10-19T16:33:52.474Z,1001.67
2022-10-19T16:34:52.462Z,1001.67
2022-10-19T16:35:52.469Z,1001.70
2022-10-19T16:36:52.431Z,1001.70
2022-10-19T16:37:52.434Z,1001.68
2022-10-19T16:38:52.431Z,1001.70
2022-10-19T16:39:52.454Z,1001.69
2022-10-19T16:40:52.400Z,1001.71
2022-10-19T16:41:52.402Z,1001.73
2022-10-19T16:42:52.378Z,1001.74
2022-10-19T16:43:52.383Z,1001.76
2022-10-19T16:44:52.378Z,1001.80
2022-10-19T16:45:52.351Z,1001.77
2022-10-19T16:46:52.357Z,1001.79
2022-10-19T16:47:52.338Z,1001.79
2022-10-19T16:48:52.345Z,1001.77
2022-10-19T16:49:52.331Z,1001.78
2022-10-19T16:50:52.337Z,1001.77
2022-10-19T16:51:54.876Z,1001.81
2022-10-19T16:52:52.294Z,1001.77
2022-10-19T16:53:52.278Z,1001.81
2022-10-19T16:54:52.308Z,1001.77
2022-10-19T16:55:52.291Z,1001.78
2022-10-19T16:56:52.261Z,1001.77
2022-10-19T16:57:52.246Z,1001.80
2022-10-19T16:58:52.251Z,1001.75
2022-10-19T17:00:52.218Z,1001.74
2022-10-19T17:01:52.296Z,1001.76
2022-10-19T17:02:52.284Z,1001.75
2022-10-19T17:03:52.194Z,1001.72
2022-10-19T17:04:52.175Z,1001.78
2022-10-19T17:05:52.172Z,1001.82
2022-10-19T17:06:52.154Z,1001.79
2022-10-19T17:07:52.145Z,1001.79
2022-10-19T17:09:23.641Z,1001.77
2022-10-19T17:09:54.749Z,1001.79
2022-10-19T17:10:52.123Z,1001.78
2022-10-19T17:11:52.137Z,1001.77
2022-10-19T17:12:52.102Z,1001.74
2022-10-19T17:13:52.104Z,1001.76
2022-10-19T17:14:52.282Z,1001.74
2022-10-19T17:15:52.102Z,1001.75
2022-10-19T17:16:52.074Z,1001.76
2022-10-19T17:17:52.260Z,1001.79
2022-10-19T17:18:52.039Z,1001.79
2022-10-19T17:19:52.037Z,1001.76
2022-10-19T17:20:52.026Z,1001.77
2022-10-19T17:21:52.010Z,1001.79
2022-10-19T17:22:52.004Z,1001.78
2022-10-19T17:23:52.020Z,1001.73
2022-10-19T17:24:52.014Z,1001.73
2022-10-19T17:25:52.060Z,1001.77
2022-10-19T17:26:51.980Z,1001.72
2022-10-19T17:27:51.990Z,1001.69
2022-10-19T17:28:51.956Z,1001.71
2022-10-19T17:29:51.958Z,1001.74
2022-10-19T17:30:51.934Z,1001.71
2022-10-19T17:31:52.136Z,1001.72
2022-10-19T17:32:51.940Z,1001.71
2022-10-19T17:33:51.921Z,1001.73
2022-10-19T17:34:51.915Z,1001.73
2022-10-19T17:35:51.946Z,1001.71
2022-10-19T17:36:51.898Z,1001.67
2022-10-19T17:37:51.903Z,1001.70
2022-10-19T17:38:51.863Z,1001.67
2022-10-19T17:39:51.869Z,1001.70
2022-10-19T17:40:52.046Z,1001.70
2022-10-19T17:41:51.896Z,1001.67
2022-10-19T17:42:51.875Z,1001.68
2022-10-19T17:43:51.863Z,1001.70
2022-10-19T17:44:51.845Z,1001.76
2022-10-19T17:45:51.795Z,1001.71
2022-10-19T17:46:51.811Z,1001.71
2022-10-19T17:47:51.782Z,1001.67
2022-10-19T17:48:51.828Z,1001.70
2022-10-19T17:49:51.769Z,1001.72
2022-10-19T17:50:51.766Z,1001.66
2022-10-19T17:51:51.758Z,1001.68
2022-10-19T17:52:51.774Z,1001.69
2022-10-19T17:53:51.741Z,1001.72
2022-10-19T17:55:11.104Z,1001.71
2022-10-19T17:55:51.746Z,1001.71
2022-10-19T17:56:51.696Z,1001.68
2022-10-19T17:57:51.742Z,1001.67
2022-10-19T17:58:51.714Z,1001.72
2022-10-19T17:59:52.764Z,1001.70
2022-10-19T18:00:51.675Z,1001.76
2022-10-19T18:01:51.845Z,1001.72
2022-10-19T18:02:51.700Z,1001.72
2022-10-19T18:03:51.641Z,1001.71
2022-10-19T18:04:51.647Z,1001.71
2022-10-19T18:05:51.654Z,1001.73
2022-10-19T18:06:51.610Z,1001.68
2022-10-19T18:07:51.611Z,1001.71
2022-10-19T18:08:51.645Z,1001.69
2022-10-19T18:09:51.585Z,1001.68
2022-10-19T18:10:51.570Z,1001.67
2022-10-19T18:11:51.596Z,1001.65
2022-10-19T18:12:51.537Z,1001.63
2022-10-19T18:13:51.735Z,1001.61
2022-10-19T18:14:51.533Z,1001.60
2022-10-19T18:15:51.526Z,1001.59
2022-10-19T18:16:51.514Z,1001.57
2022-10-19T18:17:51.492Z,1001.54
2022-10-19T18:18:51.517Z,1001.56
2022-10-19T18:19:51.467Z,1001.57
2022-10-19T18:20:51.488Z,1001.54
2022-10-19T18:21:51.485Z,1001.58
2022-10-19T18:22:51.445Z,1001.57
2022-10-19T18:23:51.439Z,1001.57
2022-10-19T18:24:51.449Z,1001.59
2022-10-19T18:25:54.354Z,1001.55
2022-10-19T18:26:51.398Z,1001.59
2022-10-19T18:27:51.616Z,1001.58
2022-10-19T18:28:51.434Z,1001.59
2022-10-19T18:29:51.387Z,1001.59
2022-10-19T18:30:51.380Z,1001.59
2022-10-19T18:31:51.709Z,1001.58
2022-10-19T18:32:51.361Z,1001.58
2022-10-19T18:33:51.356Z,1001.61
2022-10-19T18:34:51.364Z,1001.57
2022-10-19T18:35:51.326Z,1001.60
2022-10-19T18:36:51.344Z,1001.57
2022-10-19T18:37:51.295Z,1001.55
2022-10-19T18:38:51.337Z,1001.57
2022-10-19T18:39:51.317Z,1001.55
2022-10-19T18:40:51.272Z,1001.52
2022-10-19T18:41:51.255Z,1001.56
2022-10-19T18:42:51.278Z,1001.55
2022-10-19T18:43:51.232Z,1001.49
2022-10-19T18:44:51.251Z,1001.48
2022-10-19T18:45:51.220Z,1001.45
2022-10-19T18:46:51.209Z,1001.47
2022-10-19T18:47:51.231Z,1001.45
2022-10-19T18:48:51.220Z,1001.44
2022-10-19T18:49:51.238Z,1001.46
2022-10-19T18:50:51.236Z,1001.42
2022-10-19T18:51:55.034Z,1001.46
2022-10-19T18:52:51.167Z,1001.44
2022-10-19T18:53:51.151Z,1001.41
2022-10-19T18:54:51.168Z,1001.40
2022-10-19T18:55:51.145Z,1001.36
2022-10-19T18:56:51.133Z,1001.40
2022-10-19T18:57:51.099Z,1001.37
2022-10-19T18:58:51.092Z,1001.39
2022-10-19T18:59:51.084Z,1001.38
2022-10-19T19:00:51.065Z,1001.38
2022-10-19T19:01:51.164Z,1001.37
2022-10-19T19:02:51.470Z,1001.36
2022-10-19T19:03:51.078Z,1001.39
2022-10-19T19:04:51.073Z,1001.36
2022-10-19T19:05:51.043Z,1001.38
2022-10-19T19:06:51.068Z,1001.39
2022-10-19T19:07:51.021Z,1001.37
2022-10-19T19:08:51.081Z,1001.39
2022-10-19T19:09:50.989Z,1001.41
2022-10-19T19:10:51.184Z,1001.40
2022-10-19T19:11:50.979Z,1001.37
2022-10-19T19:12:50.962Z,1001.38
2022-10-19T19:13:51.017Z,1001.36
2022-10-19T19:14:51.341Z,1001.38
2022-10-19T19:15:50.926Z,1001.37
2022-10-19T19:16:50.935Z,1001.34
2022-10-19T19:17:50.923Z,1001.37
2022-10-19T19:18:51.125Z,1001.37
2022-10-19T19:19:50.905Z,1001.37
2022-10-19T19:20:50.871Z,1001.32
2022-10-19T19:21:50.862Z,1001.38
2022-10-19T19:22:50.849Z,1001.36
2022-10-19T19:23:50.860Z,1001.37
2022-10-19T19:24:50.845Z,1001.37
2022-10-19T19:25:50.853Z,1001.37
2022-10-19T19:26:50.822Z,1001.34
2022-10-19T19:27:50.818Z,1001.36
2022-10-19T19:28:51.831Z,1001.38
2022-10-19T19:29:50.793Z,1001.39
2022-10-19T19:30:50.765Z,1001.42
2022-10-19T19:31:50.812Z,1001.42
2022-10-19T19:32:50.771Z,1001.40
2022-10-19T19:33:50.830Z,1001.41
2022-10-19T19:34:54.586Z,1001.36
2022-10-19T19:35:50.777Z,1001.34
2022-10-19T19:36:50.945Z,1001.37
2022-10-19T19:37:50.788Z,1001.35
2022-10-19T19:38:50.704Z,1001.34
2022-10-19T19:39:50.677Z,1001.28
2022-10-19T19:40:50.692Z,1001.27
2022-10-19T19:41:50.670Z,1001.26
2022-10-19T19:42:50.691Z,1001.24
2022-10-19T19:43:50.657Z,1001.22
2022-10-19T19:44:50.701Z,1001.18
2022-10-19T19:45:50.691Z,1001.21